Portada
METAR-TAF:

METAR-TAF

Aeropuertos :

Aeropuerto de Ålesund-Vigra

Ålesund, Noruega

latitud: 62-34N, longitud: 006-07E, altitud: 2 m

Observación

El informe se hizo hace 36 minutos, a las 23:50 UTC
Viento 3 kt del sureste
Temperatura 12°C
Humedad 88%
Presión 1010 hPa
Visibilidad 10 km o más

METAR: ENAL 212350Z AUTO 13003KT 9999 FEW062/// BKN097/// BKN120/// 12/10 Q1010

Hora: 02:26 (00:26 UTC)

Pronóstico

El informe se hizo hace 10 horas y 26 minutos, a las 14:00 UTC
Pronóstico válido del 21 a las 15 UTC al 21 a las 22 UTC
Viento 8 kt del norte-noreste
Visibilidad 10 km o más
sin nubes por debajo de 1500 m y sin presencia de cumulonimbus.

TAF: ENAL 211400Z 2115/2122 03008KT CAVOK

Observaciones y pronósticos meteorológicos de más de 4000 aeropuertos (mensajes METAR y TAF).

Los puntos amarillos y rojos representan las estaciones disponibles.

Ponga el ratón en el punto deseado para ver el nombre de la estación.

Haga clic para ver las observaciones y los pronósticos meteorológicos.

Para cambiar el mapa : haga clic en los botones verdes con una cruz de color negro para hacer un zoom, en el botón verde con un guión para alejar o en las flechas verdes para mapas adyacentes.


METAR-TAF: